Time;durP1;ratioP1;P1;durP2;ratioP2;P2;SDS_P1;SDS_P2;PMS_P1;PMS_P2;Temp;Humidity;BMP_temperature;BMP_pressure;BME280_temperature;BME280_humidity;BME280_pressure;Samples;Min_cycle;Max_cycle;Signal;HPM_P1;HPM_P2
2020/12/18 00:01:12;;;;;;;17.88;8.88;;;3.90;99.90;;;;;;4981733;28;20081;-79
2020/12/18 00:03:38;;;;;;;14.25;7.60;;;3.80;99.90;;;;;;4982643;28;20476;-78
2020/12/18 00:06:04;;;;;;;15.00;7.78;;;3.80;99.90;;;;;;4976014;28;20022;-77
2020/12/18 00:08:30;;;;;;;17.73;9.63;;;3.80;99.90;;;;;;4987107;28;20523;-76
2020/12/18 00:10:55;;;;;;;18.88;9.38;;;3.80;99.90;;;;;;4986707;28;20062;-79
2020/12/18 00:13:21;;;;;;;20.63;9.80;;;3.90;99.90;;;;;;4977423;28;20026;-79
2020/12/18 00:15:47;;;;;;;19.35;9.70;;;3.80;99.90;;;;;;4976698;28;20141;-79
2020/12/18 00:18:12;;;;;;;17.27;9.02;;;3.80;99.90;;;;;;4976751;28;20037;-79
2020/12/18 00:20:38;;;;;;;19.50;9.32;;;3.90;99.90;;;;;;4981367;28;20039;-79
2020/12/18 00:23:04;;;;;;;18.00;8.70;;;3.90;99.90;;;;;;4991461;28;20477;-79
2020/12/18 00:25:30;;;;;;;16.75;8.52;;;3.90;99.90;;;;;;4975332;28;20062;-79
2020/12/18 00:27:56;;;;;;;16.02;8.57;;;3.90;99.90;;;;;;4989129;23;20035;-76
2020/12/18 00:30:22;;;;;;;18.00;8.13;;;3.90;99.90;;;;;;4968958;28;20039;-74
2020/12/18 00:32:47;;;;;;;16.27;9.00;;;3.90;99.90;;;;;;4969053;28;20038;-74
2020/12/18 00:35:13;;;;;;;19.33;8.65;;;3.80;99.90;;;;;;4974258;28;20030;-74
2020/12/18 00:37:39;;;;;;;16.75;8.98;;;3.80;99.90;;;;;;4965439;28;20039;-74
2020/12/18 00:40:06;;;;;;;18.30;9.35;;;3.80;99.90;;;;;;4951301;29;20398;-75
2020/12/18 00:42:32;;;;;;;17.05;9.38;;;3.80;99.90;;;;;;4950897;29;20039;-74
2020/12/18 00:44:58;;;;;;;18.30;8.48;;;3.80;99.90;;;;;;4954981;28;20560;-74
2020/12/18 00:47:24;;;;;;;19.80;8.70;;;3.80;99.90;;;;;;4954665;28;20426;-74
2020/12/18 00:49:49;;;;;;;17.45;8.38;;;3.80;99.90;;;;;;4948250;29;20042;-74
2020/12/18 00:52:16;;;;;;;15.85;8.07;;;3.80;99.90;;;;;;4949323;28;20102;-74
2020/12/18 00:54:42;;;;;;;20.23;10.05;;;3.80;99.90;;;;;;4928231;29;20042;-74
2020/12/18 00:57:09;;;;;;;20.45;8.85;;;3.80;99.90;;;;;;4956289;28;20383;-74
2020/12/18 00:59:35;;;;;;;19.27;9.00;;;3.70;99.90;;;;;;4949430;29;20063;-74
2020/12/18 01:02:04;;;;;;;19.40;9.38;;;3.80;99.90;;;;;;4950334;29;20035;-75
2020/12/18 01:04:31;;;;;;;20.58;9.95;;;3.80;99.90;;;;;;4953161;29;20138;-71
2020/12/18 01:06:57;;;;;;;18.55;9.38;;;3.80;99.90;;;;;;4936813;28;20581;-75
2020/12/18 01:09:25;;;;;;;17.92;9.02;;;3.80;99.90;;;;;;4950600;29;20032;-75
2020/12/18 01:11:55;;;;;;;17.10;8.15;;;3.80;99.90;;;;;;4948594;29;20395;-75
2020/12/18 01:14:21;;;;;;;15.07;8.05;;;3.70;99.90;;;;;;4953716;28;20031;-74
2020/12/18 01:16:55;;;;;;;15.95;7.75;;;3.70;99.90;;;;;;4951204;28;20397;-76
2020/12/18 01:19:22;;;;;;;16.40;8.27;;;3.70;99.90;;;;;;4949465;29;20030;-74
2020/12/18 01:21:49;;;;;;;20.60;9.27;;;3.70;99.90;;;;;;4950066;29;20063;-75
2020/12/18 01:24:19;;;;;;;18.38;9.02;;;3.80;99.90;;;;;;4951892;28;20030;-74
2020/12/18 01:26:48;;;;;;;18.08;9.20;;;3.90;99.90;;;;;;4952491;28;20059;-74
2020/12/18 01:29:15;;;;;;;17.67;9.38;;;3.80;99.90;;;;;;4950503;29;20031;-74
2020/12/18 01:31:41;;;;;;;17.75;8.63;;;3.80;99.90;;;;;;4950538;28;20842;-74
2020/12/18 01:34:08;;;;;;;15.80;8.10;;;3.90;99.90;;;;;;4952749;29;20035;-75
2020/12/18 01:36:35;;;;;;;20.55;9.00;;;3.80;99.90;;;;;;4952079;29;20510;-74
2020/12/18 01:39:09;;;;;;;21.77;9.35;;;3.90;99.90;;;;;;4947090;29;20793;-74
2020/12/18 01:41:35;;;;;;;18.33;8.98;;;3.90;99.90;;;;;;4949407;29;20039;-75
2020/12/18 01:44:05;;;;;;;17.52;8.63;;;3.90;99.90;;;;;;4952344;29;20060;-75
2020/12/18 01:46:35;;;;;;;16.98;8.27;;;3.80;99.90;;;;;;4952407;29;20035;-74
2020/12/18 01:49:01;;;;;;;17.30;8.63;;;3.80;99.90;;;;;;4948869;28;20110;-75
2020/12/18 01:51:28;;;;;;;20.55;8.98;;;3.90;99.90;;;;;;4949762;29;20053;-74
2020/12/18 01:53:55;;;;;;;18.13;8.57;;;3.90;99.90;;;;;;4951729;28;20178;-75
2020/12/18 01:56:29;;;;;;;19.50;8.40;;;3.90;99.90;;;;;;4937411;29;20501;-74
2020/12/18 01:59:11;;;;;;;18.05;8.52;;;3.80;99.90;;;;;;4944273;29;20420;-74
2020/12/18 02:02:03;;;;;;;18.55;8.45;;;3.80;99.90;;;;;;4945941;29;20046;-75
2020/12/18 02:04:41;;;;;;;15.25;7.43;;;3.80;99.90;;;;;;4936895;29;20126;-74
2020/12/18 02:07:10;;;;;;;16.83;8.75;;;3.80;99.90;;;;;;4942065;28;20023;-75
2020/12/18 02:09:47;;;;;;;20.50;9.35;;;3.80;99.90;;;;;;4949251;28;20036;-75
2020/12/18 02:12:13;;;;;;;18.67;8.27;;;3.70;99.90;;;;;;4936831;29;20042;-75
2020/12/18 02:14:48;;;;;;;22.38;8.93;;;3.80;99.90;;;;;;4934386;29;20094;-72
2020/12/18 02:17:14;;;;;;;21.00;8.77;;;3.80;99.90;;;;;;4945006;28;20063;-75
2020/12/18 02:19:53;;;;;;;18.15;8.90;;;3.80;99.90;;;;;;4948506;29;20059;-75
2020/12/18 02:22:23;;;;;;;21.13;10.20;;;3.80;99.90;;;;;;4957300;28;20497;-74
2020/12/18 02:25:12;;;;;;;20.45;8.98;;;3.80;99.90;;;;;;4952885;28;20035;-72
2020/12/18 02:27:40;;;;;;;17.48;8.70;;;3.90;99.90;;;;;;4951687;28;20495;-74
2020/12/18 02:30:12;;;;;;;17.17;8.65;;;3.90;99.90;;;;;;4945920;29;20402;-74
2020/12/18 02:33:07;;;;;;;18.33;8.43;;;3.90;99.90;;;;;;4932381;29;20690;-74
2020/12/18 02:35:39;;;;;;;18.40;8.60;;;3.90;99.90;;;;;;4953140;28;20513;-73
2020/12/18 02:38:06;;;;;;;19.27;9.40;;;3.90;99.90;;;;;;4951778;28;20533;-74
2020/12/18 02:40:36;;;;;;;17.30;8.82;;;3.80;99.90;;;;;;4952993;29;20497;-74
2020/12/18 02:43:20;;;;;;;22.13;9.50;;;3.80;99.90;;;;;;4955953;29;20524;-74
2020/12/18 02:45:46;;;;;;;17.02;8.27;;;3.70;99.90;;;;;;4956031;29;20035;-74
2020/12/18 02:48:23;;;;;;;17.02;8.10;;;3.70;99.90;;;;;;4953476;28;20058;-73
2020/12/18 02:51:02;;;;;;;19.50;9.18;;;3.80;99.90;;;;;;4950308;29;20084;-74
2020/12/18 02:53:28;;;;;;;18.98;8.57;;;3.80;99.90;;;;;;4954749;29;20043;-74
2020/12/18 02:56:12;;;;;;;17.25;9.02;;;3.80;99.90;;;;;;4956561;29;20063;-75
2020/12/18 02:58:46;;;;;;;20.13;9.35;;;3.70;99.90;;;;;;4950991;28;20498;-74
2020/12/18 03:01:12;;;;;;;18.83;9.02;;;3.80;99.90;;;;;;4948439;29;20637;-75
2020/12/18 03:03:38;;;;;;;21.83;9.65;;;3.80;99.90;;;;;;4936071;29;20114;-74
2020/12/18 03:06:20;;;;;;;17.58;8.45;;;3.80;99.90;;;;;;4958903;28;20039;-74
2020/12/18 03:08:50;;;;;;;20.60;10.00;;;3.80;99.90;;;;;;4953232;28;20055;-74
2020/12/18 03:11:16;;;;;;;18.63;8.57;;;3.80;99.90;;;;;;4948677;28;20044;-74
2020/12/18 03:13:46;;;;;;;17.77;8.63;;;3.80;99.90;;;;;;4945565;29;20047;-74
2020/12/18 03:16:12;;;;;;;19.83;7.75;;;3.80;99.90;;;;;;4920460;29;20039;-74
2020/12/18 03:19:07;;;;;;;17.92;8.55;;;3.70;99.90;;;;;;4950133;28;20019;-75
2020/12/18 03:21:33;;;;;;;17.30;8.25;;;3.80;99.90;;;;;;4951890;29;20130;-74
2020/12/18 03:24:24;;;;;;;16.85;8.32;;;3.80;99.90;;;;;;4954883;29;20031;-74
2020/12/18 03:27:06;;;;;;;16.27;8.30;;;3.70;99.90;;;;;;4954979;28;20027;-75
2020/12/18 03:29:38;;;;;;;16.15;7.85;;;3.80;99.90;;;;;;4952296;29;20042;-74
2020/12/18 03:32:04;;;;;;;15.88;7.95;;;3.80;99.90;;;;;;4934752;29;20402;-74
2020/12/18 03:34:31;;;;;;;18.13;8.95;;;3.80;99.90;;;;;;4954530;29;20035;-73
2020/12/18 03:37:29;;;;;;;14.27;7.70;;;3.80;99.90;;;;;;4950253;28;20122;-74
2020/12/18 03:39:58;;;;;;;17.35;8.25;;;3.80;99.90;;;;;;4934863;29;20035;-74
2020/12/18 03:42:28;;;;;;;16.65;8.60;;;3.70;99.90;;;;;;4952398;29;20130;-74
2020/12/18 03:44:54;;;;;;;15.18;8.25;;;3.70;99.90;;;;;;4954643;29;20034;-74
2020/12/18 03:47:39;;;;;;;18.45;9.15;;;3.70;99.90;;;;;;4954640;28;20036;-74
2020/12/18 03:50:11;;;;;;;19.13;8.57;;;3.70;99.90;;;;;;4951234;29;20031;-73
2020/12/18 03:52:39;;;;;;;15.82;8.25;;;3.70;99.90;;;;;;4936851;29;20039;-75
2020/12/18 03:55:05;;;;;;;19.15;8.60;;;3.60;99.90;;;;;;4954298;29;20032;-75
2020/12/18 03:57:49;;;;;;;16.08;8.07;;;3.60;99.90;;;;;;4952571;28;20517;-75
2020/12/18 04:00:26;;;;;;;16.05;8.15;;;3.60;99.90;;;;;;4946157;29;20394;-75
2020/12/18 04:02:59;;;;;;;17.75;7.93;;;3.60;99.90;;;;;;4938589;29;20074;-74
2020/12/18 04:05:31;;;;;;;16.92;7.90;;;3.60;99.90;;;;;;4939090;29;20030;-75
2020/12/18 04:07:58;;;;;;;16.60;8.10;;;3.50;99.90;;;;;;4953981;28;20043;-76
2020/12/18 04:10:56;;;;;;;18.52;8.68;;;3.50;99.90;;;;;;4941244;29;20047;-75
2020/12/18 04:13:57;;;;;;;17.50;7.55;;;3.30;99.90;;;;;;4953435;29;20497;-75
2020/12/18 04:16:29;;;;;;;16.83;8.05;;;3.20;99.90;;;;;;4954288;29;20043;-76
2020/12/18 04:18:55;;;;;;;15.30;7.30;;;3.10;99.90;;;;;;4948880;28;20039;-74
2020/12/18 04:21:25;;;;;;;16.35;7.60;;;3.20;99.90;;;;;;4938924;29;20434;-75
2020/12/18 04:24:00;;;;;;;13.63;7.03;;;3.10;99.90;;;;;;4939174;29;20028;-74
2020/12/18 04:26:29;;;;;;;15.82;8.35;;;3.10;99.90;;;;;;4953746;29;20131;-75
2020/12/18 04:28:56;;;;;;;15.35;7.97;;;3.10;99.90;;;;;;4951195;28;20122;-74
2020/12/18 04:31:22;;;;;;;19.35;8.63;;;3.00;99.90;;;;;;4935789;29;20039;-75
2020/12/18 04:33:49;;;;;;;13.05;7.10;;;3.10;99.90;;;;;;4953814;29;20042;-74
2020/12/18 04:36:20;;;;;;;14.43;7.30;;;3.10;99.90;;;;;;4953412;29;20042;-75
2020/12/18 04:38:47;;;;;;;12.95;7.18;;;3.10;99.90;;;;;;4949117;28;20042;-74
2020/12/18 04:41:27;;;;;;;13.98;7.25;;;3.10;99.90;;;;;;4951939;28;20131;-74
2020/12/18 04:43:59;;;;;;;16.38;7.10;;;3.00;99.90;;;;;;4953666;29;20027;-74
2020/12/18 04:46:36;;;;;;;12.75;7.10;;;3.10;99.90;;;;;;4938742;29;20054;-75
2020/12/18 04:49:03;;;;;;;15.10;7.40;;;3.10;99.90;;;;;;4950441;28;20046;-76
2020/12/18 04:51:43;;;;;;;15.77;7.13;;;3.10;99.90;;;;;;4949793;29;20038;-74
2020/12/18 04:54:21;;;;;;;14.82;7.53;;;3.10;99.90;;;;;;4951136;29;20082;-74
2020/12/18 04:56:54;;;;;;;15.43;7.13;;;3.10;99.90;;;;;;4968866;28;20039;-75
2020/12/18 04:59:24;;;;;;;17.00;7.60;;;3.20;99.90;;;;;;4965485;28;20511;-75
2020/12/18 05:02:15;;;;;;;17.60;7.28;;;3.10;99.90;;;;;;4942150;29;20043;-74
2020/12/18 05:04:45;;;;;;;13.73;7.35;;;3.10;99.90;;;;;;4953232;29;20062;-74
2020/12/18 05:07:24;;;;;;;14.77;7.35;;;3.10;99.90;;;;;;4952937;28;20114;-74
2020/12/18 05:09:54;;;;;;;17.38;8.18;;;3.10;99.90;;;;;;4949490;28;20035;-74
2020/12/18 05:12:40;;;;;;;14.45;7.28;;;3.10;99.90;;;;;;4951147;29;20058;-74
2020/12/18 05:15:07;;;;;;;16.70;7.22;;;3.00;99.90;;;;;;4953046;29;20126;-74
2020/12/18 05:17:52;;;;;;;17.40;7.65;;;3.00;99.90;;;;;;4949621;28;20035;-74
2020/12/18 05:20:19;;;;;;;15.75;7.68;;;3.00;99.90;;;;;;4950282;29;20406;-74
2020/12/18 05:23:09;;;;;;;13.07;7.13;;;2.90;99.90;;;;;;4953667;29;20115;-74
2020/12/18 05:25:53;;;;;;;14.95;7.55;;;3.00;99.90;;;;;;4952652;29;20028;-75
2020/12/18 05:28:20;;;;;;;16.13;7.93;;;3.00;99.90;;;;;;4949026;28;20553;-74
2020/12/18 05:30:54;;;;;;;14.82;6.88;;;3.00;99.90;;;;;;4949565;29;20450;-74
2020/12/18 05:33:41;;;;;;;14.00;6.90;;;3.10;99.90;;;;;;4952179;28;20393;-74
2020/12/18 05:36:27;;;;;;;14.93;6.85;;;3.10;99.90;;;;;;4952291;29;20027;-73
2020/12/18 05:38:57;;;;;;;15.70;7.15;;;3.00;99.90;;;;;;4948648;28;20028;-74
2020/12/18 05:41:34;;;;;;;15.93;7.80;;;3.00;99.90;;;;;;4948433;28;20031;-74
2020/12/18 05:44:05;;;;;;;13.80;7.35;;;3.00;99.90;;;;;;4953288;29;20032;-74
2020/12/18 05:47:10;;;;;;;16.65;7.43;;;3.00;99.90;;;;;;4940231;28;20040;-74
2020/12/18 05:49:40;;;;;;;12.50;6.90;;;3.00;99.90;;;;;;4967358;28;20031;-75
2020/12/18 05:52:20;;;;;;;14.45;7.00;;;3.00;99.90;;;;;;4940337;29;20039;-75
2020/12/18 05:54:56;;;;;;;14.30;7.03;;;3.00;99.90;;;;;;4951865;29;20498;-75
2020/12/18 05:57:35;;;;;;;14.25;7.28;;;3.00;99.90;;;;;;4952421;28;20042;-75
2020/12/18 06:00:08;;;;;;;13.70;7.13;;;3.00;99.90;;;;;;4947839;29;20110;-75
2020/12/18 06:02:57;;;;;;;13.27;6.80;;;3.00;99.90;;;;;;4949560;29;20039;-74
2020/12/18 06:05:45;;;;;;;13.25;6.82;;;3.00;99.90;;;;;;4951984;29;20400;-75
2020/12/18 06:08:18;;;;;;;13.27;6.47;;;3.00;99.90;;;;;;4933977;29;20027;-74
2020/12/18 06:10:50;;;;;;;12.15;6.30;;;2.90;99.90;;;;;;4948670;28;20036;-74
2020/12/18 06:13:29;;;;;;;11.48;6.85;;;3.00;99.90;;;;;;4947804;28;20090;-75
2020/12/18 06:16:11;;;;;;;12.77;6.72;;;3.00;99.90;;;;;;4951878;29;20031;-75
2020/12/18 06:19:07;;;;;;;13.68;6.45;;;3.00;99.90;;;;;;4947728;28;20039;-75
2020/12/18 06:21:39;;;;;;;11.25;6.28;;;3.00;99.90;;;;;;4962780;28;20042;-76
2020/12/18 06:24:09;;;;;;;11.25;6.15;;;2.90;99.90;;;;;;4951908;29;20086;-74
2020/12/18 06:27:00;;;;;;;12.48;6.30;;;2.90;99.90;;;;;;4951752;28;20516;-75
2020/12/18 06:29:32;;;;;;;11.55;6.03;;;2.90;99.90;;;;;;4995663;23;20417;-74
2020/12/18 06:32:28;;;;;;;10.18;5.78;;;2.80;99.90;;;;;;4965967;28;20518;-75
2020/12/18 06:35:29;;;;;;;10.57;5.78;;;2.80;99.90;;;;;;4977910;28;20523;-74
2020/12/18 06:38:30;;;;;;;12.13;5.80;;;2.70;99.90;;;;;;4931791;29;20039;-74
2020/12/18 06:41:25;;;;;;;10.10;6.05;;;2.70;99.90;;;;;;4976927;28;20042;-74
2020/12/18 06:44:40;;;;;;;13.95;5.60;;;2.60;99.90;;;;;;4970198;28;20031;-74
2020/12/18 06:47:32;;;;;;;12.02;5.15;;;2.60;99.90;;;;;;4955207;28;20035;-74
2020/12/18 06:50:37;;;;;;;14.32;5.55;;;2.60;99.90;;;;;;4959397;28;20046;-74
2020/12/18 06:53:35;;;;;;;11.30;6.10;;;2.50;99.90;;;;;;4927485;28;20035;-74
2020/12/18 06:56:28;;;;;;;17.73;5.95;;;2.40;99.90;;;;;;4961910;28;20452;-75
2020/12/18 06:59:24;;;;;;;11.18;6.20;;;2.50;99.90;;;;;;4970798;28;20031;-75
2020/12/18 07:01:50;;;;;;;10.40;5.70;;;2.50;99.90;;;;;;4978488;28;20034;-75
2020/12/18 07:04:22;;;;;;;12.50;5.95;;;2.50;99.90;;;;;;4989439;28;20730;-75
2020/12/18 07:06:48;;;;;;;9.40;4.80;;;2.50;99.90;;;;;;4981352;28;20030;-75
2020/12/18 07:09:16;;;;;;;11.23;5.53;;;2.40;99.90;;;;;;4979860;28;20031;-74
2020/12/18 07:11:43;;;;;;;13.73;5.25;;;2.50;99.90;;;;;;4988904;28;20034;-74
2020/12/18 07:14:17;;;;;;;13.32;5.68;;;2.40;99.90;;;;;;4979837;28;20405;-74
2020/12/18 07:16:53;;;;;;;11.35;5.53;;;2.40;99.90;;;;;;4986045;28;20035;-75
2020/12/18 07:19:19;;;;;;;10.30;5.25;;;2.40;99.90;;;;;;4981359;28;20442;-74
2020/12/18 07:22:01;;;;;;;11.65;5.43;;;2.30;99.90;;;;;;4979418;28;20071;-76
2020/12/18 07:24:27;;;;;;;9.85;5.57;;;2.30;99.90;;;;;;4984721;28;20466;-75
2020/12/18 07:26:52;;;;;;;9.55;5.07;;;2.30;99.90;;;;;;4974407;28;20054;-75
2020/12/18 07:29:21;;;;;;;12.60;5.75;;;2.30;99.90;;;;;;4980016;28;20045;-75
2020/12/18 07:31:46;;;;;;;10.57;5.82;;;2.30;99.90;;;;;;4992383;28;20053;-75
2020/12/18 07:34:12;;;;;;;13.05;4.80;;;2.30;99.90;;;;;;4991991;28;20042;-75
2020/12/18 07:36:38;;;;;;;7.35;4.72;;;2.30;99.90;;;;;;4994418;28;20030;-75
2020/12/18 07:39:09;;;;;;;10.32;5.22;;;2.30;99.90;;;;;;4990852;28;20494;-75
2020/12/18 07:41:34;;;;;;;9.70;4.72;;;2.20;99.90;;;;;;4985618;28;20485;-75
2020/12/18 07:44:07;;;;;;;9.48;4.53;;;2.20;99.90;;;;;;4984282;28;20035;-75
2020/12/18 07:46:34;;;;;;;16.65;5.25;;;2.20;99.90;;;;;;4957900;28;20110;-74
2020/12/18 07:49:10;;;;;;;10.50;4.72;;;2.20;99.90;;;;;;4980530;28;20023;-75
2020/12/18 07:51:40;;;;;;;8.65;4.22;;;2.10;99.90;;;;;;4991223;28;20053;-75
2020/12/18 07:54:29;;;;;;;9.52;4.38;;;2.10;99.90;;;;;;4975785;28;20053;-74
2020/12/18 07:57:05;;;;;;;11.25;5.75;;;2.10;99.90;;;;;;4958550;28;20035;-74
2020/12/18 07:59:30;;;;;;;14.75;5.47;;;2.10;99.90;;;;;;4974398;28;20113;-74
2020/12/18 08:01:56;;;;;;;11.23;5.05;;;2.10;99.90;;;;;;4973126;28;20492;-74
2020/12/18 08:04:23;;;;;;;11.27;4.70;;;2.10;99.90;;;;;;4993509;28;20038;-74
2020/12/18 08:06:49;;;;;;;11.85;5.15;;;2.10;99.90;;;;;;4990402;28;20031;-75
2020/12/18 08:09:16;;;;;;;9.68;5.13;;;2.20;99.90;;;;;;4974193;28;20074;-74
2020/12/18 08:11:45;;;;;;;16.30;5.40;;;2.20;99.90;;;;;;4982164;28;20130;-74
2020/12/18 08:14:13;;;;;;;10.95;4.88;;;2.30;99.90;;;;;;4985563;28;20038;-75
2020/12/18 08:16:40;;;;;;;11.68;4.78;;;2.30;99.90;;;;;;4983191;28;20061;-74
2020/12/18 08:19:09;;;;;;;12.68;5.47;;;2.40;99.90;;;;;;4980951;28;20085;-74
2020/12/18 08:21:37;;;;;;;9.57;4.38;;;2.40;99.90;;;;;;4979701;28;20043;-74
2020/12/18 08:24:08;;;;;;;9.32;4.40;;;2.40;99.90;;;;;;4990336;28;20029;-74
2020/12/18 08:26:53;;;;;;;11.57;4.45;;;2.40;99.90;;;;;;4974839;28;20062;-74
2020/12/18 08:29:22;;;;;;;12.37;4.10;;;2.40;99.90;;;;;;4973733;28;20031;-74
2020/12/18 08:31:53;;;;;;;9.30;4.20;;;2.30;99.90;;;;;;4976165;28;20084;-74
2020/12/18 08:34:30;;;;;;;9.10;4.25;;;2.40;99.90;;;;;;4975751;28;20042;-73
2020/12/18 08:36:57;;;;;;;9.73;4.57;;;2.40;99.90;;;;;;4993675;28;20046;-73
2020/12/18 08:39:27;;;;;;;8.25;3.90;;;2.50;99.90;;;;;;4983081;28;20492;-74
2020/12/18 08:41:54;;;;;;;6.80;4.13;;;2.50;99.90;;;;;;4990129;28;20034;-73
2020/12/18 08:44:27;;;;;;;11.05;4.30;;;2.50;99.90;;;;;;4974064;28;20027;-74
2020/12/18 08:46:53;;;;;;;9.32;4.70;;;2.50;99.90;;;;;;4974419;28;20030;-74
2020/12/18 08:49:22;;;;;;;10.07;4.18;;;2.60;99.90;;;;;;4977694;28;20265;-73
2020/12/18 08:51:50;;;;;;;9.75;4.65;;;2.50;99.90;;;;;;4985039;28;20042;-73
2020/12/18 08:54:24;;;;;;;7.50;3.83;;;2.60;99.90;;;;;;4983374;28;20034;-73
2020/12/18 08:57:11;;;;;;;6.40;3.47;;;2.60;99.90;;;;;;4980976;28;20547;-73
2020/12/18 08:59:37;;;;;;;6.60;4.07;;;2.60;99.90;;;;;;4978609;28;20089;-74
2020/12/18 09:02:03;;;;;;;7.97;3.83;;;2.60;99.90;;;;;;4971892;28;20500;-73
2020/12/18 09:04:29;;;;;;;14.40;4.18;;;2.60;99.90;;;;;;4973775;28;20073;-74
2020/12/18 09:06:55;;;;;;;9.60;4.45;;;2.60;99.90;;;;;;4973841;28;20031;-73
2020/12/18 09:09:20;;;;;;;7.88;3.97;;;2.60;99.90;;;;;;4967683;28;20405;-73
2020/12/18 09:11:48;;;;;;;8.55;3.90;;;2.60;99.90;;;;;;4974912;28;20027;-73
2020/12/18 09:14:26;;;;;;;8.50;4.00;;;2.60;99.90;;;;;;4980468;28;20045;-74
2020/12/18 09:16:58;;;;;;;11.07;3.85;;;2.60;99.90;;;;;;4988796;28;20592;-73
2020/12/18 09:19:24;;;;;;;9.00;3.92;;;2.60;99.90;;;;;;4976354;28;20038;-73
2020/12/18 09:21:50;;;;;;;12.07;4.18;;;2.60;99.90;;;;;;4986228;28;20504;-73
2020/12/18 09:24:19;;;;;;;9.30;3.95;;;2.70;99.90;;;;;;4969537;28;20687;-74
2020/12/18 09:26:45;;;;;;;9.80;4.05;;;2.70;99.90;;;;;;4968425;28;20040;-73
2020/12/18 09:29:18;;;;;;;8.35;4.03;;;2.70;99.90;;;;;;4967189;28;21829;-73
2020/12/18 09:31:46;;;;;;;8.30;3.85;;;2.80;99.90;;;;;;4973245;28;20027;-72
2020/12/18 09:34:18;;;;;;;7.65;4.13;;;2.90;99.90;;;;;;4988917;28;20058;-74
2020/12/18 09:36:44;;;;;;;7.95;3.78;;;2.80;99.90;;;;;;4987668;28;20106;-73
2020/12/18 09:39:09;;;;;;;7.97;4.03;;;2.90;99.90;;;;;;4975770;28;20130;-73
2020/12/18 09:41:35;;;;;;;10.43;3.65;;;2.90;99.90;;;;;;4972340;28;20037;-72
2020/12/18 09:44:01;;;;;;;8.05;3.55;;;2.90;99.90;;;;;;4968309;28;20038;-73
2020/12/18 09:46:26;;;;;;;8.82;3.80;;;2.90;99.90;;;;;;4968210;28;20057;-74
2020/12/18 09:48:52;;;;;;;7.75;3.80;;;3.00;99.90;;;;;;4973366;28;20055;-73
2020/12/18 09:51:18;;;;;;;8.00;3.67;;;2.90;99.90;;;;;;4973365;28;20564;-73
2020/12/18 09:53:45;;;;;;;9.43;4.00;;;2.90;99.90;;;;;;4981045;28;20058;-73
2020/12/18 09:56:12;;;;;;;6.20;3.75;;;3.00;99.90;;;;;;4981954;28;20058;-73
2020/12/18 09:58:38;;;;;;;9.05;3.53;;;3.00;99.90;;;;;;4959657;28;20049;-74
2020/12/18 10:01:04;;;;;;;7.38;3.53;;;3.00;99.90;;;;;;4976767;28;20484;-73
2020/12/18 10:03:30;;;;;;;8.98;3.38;;;3.10;99.90;;;;;;4983585;28;20113;-74
2020/12/18 10:05:56;;;;;;;10.70;4.55;;;3.10;99.90;;;;;;4971656;28;20117;-73
2020/12/18 10:08:25;;;;;;;8.02;3.53;;;3.20;99.90;;;;;;4966183;28;20061;-73
2020/12/18 10:10:50;;;;;;;7.75;4.10;;;3.20;99.90;;;;;;4970135;28;20101;-73
2020/12/18 10:13:17;;;;;;;9.77;3.95;;;3.20;99.90;;;;;;4969820;28;20043;-74
2020/12/18 10:15:43;;;;;;;5.82;3.10;;;3.20;99.90;;;;;;4953492;28;20030;-73
2020/12/18 10:18:09;;;;;;;7.60;3.45;;;3.20;99.90;;;;;;4968345;28;20038;-74
2020/12/18 10:20:35;;;;;;;4.82;3.35;;;3.20;99.90;;;;;;4985475;28;20092;-74
2020/12/18 10:23:01;;;;;;;9.32;3.22;;;3.30;99.90;;;;;;4985411;28;20042;-74
2020/12/18 10:25:26;;;;;;;6.97;3.65;;;3.30;99.90;;;;;;4986242;28;20039;-73
2020/12/18 10:27:52;;;;;;;8.20;3.58;;;3.30;99.90;;;;;;4974007;28;20035;-74
2020/12/18 10:30:18;;;;;;;6.93;3.17;;;3.30;99.90;;;;;;4974746;28;20033;-74
2020/12/18 10:32:45;;;;;;;7.43;3.45;;;3.30;99.90;;;;;;4984418;28;20145;-74
2020/12/18 10:35:11;;;;;;;9.23;3.75;;;3.30;99.90;;;;;;4969385;28;20173;-73
2020/12/18 10:37:37;;;;;;;8.73;3.88;;;3.40;99.90;;;;;;4985238;28;20109;-73
2020/12/18 10:40:05;;;;;;;6.75;3.47;;;3.40;99.90;;;;;;4977899;28;20113;-73
2020/12/18 10:42:31;;;;;;;8.88;3.55;;;3.50;99.90;;;;;;4983894;28;20043;-73
2020/12/18 10:44:57;;;;;;;6.38;3.60;;;3.50;99.90;;;;;;4988104;28;20022;-74
2020/12/18 10:47:23;;;;;;;5.90;3.28;;;3.60;99.90;;;;;;4987711;28;20018;-74
2020/12/18 10:49:48;;;;;;;7.30;3.20;;;3.60;99.90;;;;;;4978943;28;20026;-74
2020/12/18 10:52:14;;;;;;;7.90;3.53;;;3.70;99.90;;;;;;4981983;28;20084;-73
2020/12/18 10:54:40;;;;;;;6.85;3.22;;;3.60;99.90;;;;;;4985910;28;20049;-73
2020/12/18 10:57:06;;;;;;;6.35;3.22;;;3.60;99.90;;;;;;4988225;28;20124;-73
2020/12/18 10:59:32;;;;;;;9.65;3.58;;;3.70;99.90;;;;;;4980471;28;20080;-74
2020/12/18 11:01:59;;;;;;;7.05;3.35;;;3.60;99.90;;;;;;4988606;28;20038;-74
2020/12/18 11:04:25;;;;;;;7.80;3.38;;;3.60;99.90;;;;;;4990308;28;20488;-73
2020/12/18 11:06:51;;;;;;;7.13;3.22;;;3.60;99.90;;;;;;4991416;28;20026;-74
2020/12/18 11:09:17;;;;;;;7.45;3.25;;;3.60;99.90;;;;;;4986364;28;20117;-73
2020/12/18 11:11:49;;;;;;;8.55;3.60;;;3.70;99.90;;;;;;4975873;28;20544;-73
2020/12/18 11:14:15;;;;;;;5.97;3.28;;;3.80;99.90;;;;;;4978795;28;20101;-74
2020/12/18 11:16:40;;;;;;;6.63;3.63;;;3.80;99.90;;;;;;4983288;28;20046;-73
2020/12/18 11:19:07;;;;;;;7.88;3.85;;;3.90;99.90;;;;;;4976742;28;20038;-73
2020/12/18 11:21:32;;;;;;;7.70;3.88;;;3.90;99.90;;;;;;4968878;28;20111;-73
2020/12/18 11:23:58;;;;;;;10.38;4.20;;;4.00;99.90;;;;;;4978351;28;20034;-73
2020/12/18 11:26:25;;;;;;;7.35;3.42;;;4.00;99.90;;;;;;4970143;28;20027;-73
2020/12/18 11:28:51;;;;;;;7.18;3.80;;;4.00;99.90;;;;;;4968967;28;20035;-73
2020/12/18 11:31:17;;;;;;;8.13;3.83;;;4.00;99.90;;;;;;4981321;28;20034;-73
2020/12/18 11:33:46;;;;;;;5.93;2.80;;;4.00;99.90;;;;;;4982498;28;20035;-73
2020/12/18 11:36:12;;;;;;;7.13;3.08;;;4.00;99.90;;;;;;4980878;28;20050;-74
2020/12/18 11:38:37;;;;;;;4.82;3.30;;;4.10;99.90;;;;;;4982694;28;20073;-72
2020/12/18 11:41:03;;;;;;;6.25;3.22;;;4.10;99.90;;;;;;4976159;28;20127;-73
2020/12/18 11:43:29;;;;;;;8.55;3.38;;;4.10;99.90;;;;;;4970799;28;20046;-74
2020/12/18 11:45:55;;;;;;;6.20;3.42;;;4.10;99.90;;;;;;4972542;28;20026;-74
2020/12/18 11:48:20;;;;;;;6.60;3.53;;;4.10;99.90;;;;;;4972253;28;20065;-73
2020/12/18 11:50:47;;;;;;;9.18;3.15;;;4.10;99.90;;;;;;4977960;28;20035;-73
2020/12/18 11:53:12;;;;;;;7.00;3.72;;;4.10;99.90;;;;;;4982284;28;20077;-73
2020/12/18 11:55:38;;;;;;;6.95;3.65;;;4.10;99.90;;;;;;4971995;28;20039;-73
2020/12/18 11:58:04;;;;;;;6.70;3.72;;;4.20;99.90;;;;;;4970653;28;20034;-73
2020/12/18 12:00:31;;;;;;;8.07;4.13;;;4.20;99.90;;;;;;4984327;28;20034;-74
2020/12/18 12:02:56;;;;;;;8.40;3.80;;;4.30;99.90;;;;;;4980855;28;20061;-74
2020/12/18 12:05:23;;;;;;;11.38;6.07;;;4.30;99.90;;;;;;4969203;28;20113;-74
2020/12/18 12:07:50;;;;;;;7.13;4.25;;;4.30;99.90;;;;;;4973019;28;20510;-74
2020/12/18 12:10:17;;;;;;;8.55;4.50;;;4.30;99.90;;;;;;4974847;28;20118;-72
2020/12/18 12:12:47;;;;;;;9.43;4.82;;;4.30;99.90;;;;;;4980073;28;20631;-73
2020/12/18 12:15:15;;;;;;;7.22;4.28;;;4.40;99.90;;;;;;4972029;28;20035;-74
2020/12/18 12:17:41;;;;;;;8.70;4.05;;;4.40;99.90;;;;;;4979256;28;20057;-73
2020/12/18 12:20:07;;;;;;;7.75;4.20;;;4.40;99.90;;;;;;4975588;28;20481;-74
2020/12/18 12:22:33;;;;;;;7.95;3.95;;;4.40;99.90;;;;;;4970856;28;20038;-73
2020/12/18 12:24:59;;;;;;;10.93;6.05;;;4.50;99.90;;;;;;4982779;28;20054;-73
2020/12/18 12:27:26;;;;;;;9.63;4.13;;;4.50;99.90;;;;;;4979756;28;20596;-73
2020/12/18 12:29:52;;;;;;;8.93;4.35;;;4.50;99.90;;;;;;5007405;23;20129;-71
2020/12/18 12:32:18;;;;;;;8.60;4.93;;;4.50;99.90;;;;;;4985683;28;20066;-74
2020/12/18 12:34:44;;;;;;;9.55;4.35;;;4.40;99.90;;;;;;4974131;28;20061;-73
2020/12/18 12:37:11;;;;;;;7.28;3.75;;;4.40;99.90;;;;;;4975000;28;20373;-73
2020/12/18 12:39:42;;;;;;;8.02;4.20;;;4.50;99.90;;;;;;4969561;28;20030;-74
2020/12/18 12:42:08;;;;;;;6.45;3.75;;;4.50;99.90;;;;;;4957318;28;20031;-74
2020/12/18 12:44:34;;;;;;;7.28;3.50;;;4.50;99.90;;;;;;4968495;28;20064;-73
2020/12/18 12:47:00;;;;;;;7.30;3.83;;;4.60;99.90;;;;;;4970195;28;20026;-75
2020/12/18 12:49:27;;;;;;;8.55;4.43;;;4.60;99.90;;;;;;4954574;28;20027;-74
2020/12/18 12:51:57;;;;;;;9.35;3.63;;;4.60;99.90;;;;;;4953100;28;20035;-74
2020/12/18 12:54:23;;;;;;;6.05;3.58;;;4.60;99.90;;;;;;4967711;28;20078;-74
2020/12/18 12:56:49;;;;;;;6.82;4.10;;;4.60;99.90;;;;;;4969182;28;20070;-75
2020/12/18 12:59:15;;;;;;;7.07;4.20;;;4.60;99.90;;;;;;4965950;28;20120;-71
2020/12/18 13:01:41;;;;;;;9.07;4.03;;;4.70;99.90;;;;;;4963513;28;20422;-74
2020/12/18 13:04:07;;;;;;;9.15;4.28;;;4.70;99.90;;;;;;4967799;28;20046;-74
2020/12/18 13:06:33;;;;;;;8.13;4.30;;;4.70;99.90;;;;;;4969470;28;20031;-74
2020/12/18 13:08:58;;;;;;;6.65;4.07;;;4.70;99.90;;;;;;4965403;28;20027;-74
2020/12/18 13:11:24;;;;;;;11.77;4.70;;;4.70;99.90;;;;;;4959812;28;20066;-74